Tiempo atmosférico en la estación meteorológica de Vigo Aeropuerto, Pontevedra (261 m.)



Fecha
DESCASC
Temp. máxima en grados centígrados (hora)
DESCASC
Temp. mínima en grados centígrados (hora)
DESCASC
Temp. media en grados centígrados
DESCASC
Racha de viento máxima en m/sg (hora)
DESCASC
Velocidad máxima media en intervalos de 10 minutos(hora)
DESCASC
Precipitaciones diarias en mm
DESCASC
Precipitaciones de 00:00 a 06:00 en mm
DESCASC
Precipitaciones de 06:00 a 12:00 en mm
DESCASC
Precipitaciones de 12:00 a 18:00 en mm
DESCASC
Precipitaciones de 18:00 a 24:00 en mm
DESCASC
08-12-2019 13 (15:50) 7.8 (23:50) 10.4 6.67 (03:30) 4.17 (03:30) 7.7 0 7.3 0.4 0
07-12-2019 11 (17:10) 4.7 (09:30) 7.8 6.67 (22:40) 4.44 (14:50) 0.2 0 0 0 0.2
06-12-2019 14.1 (15:30) 5.8 (08:40) 10 6.67 (04:40) 4.44 (02:40) 0 0 0 0 0
05-12-2019 15.1 (15:50) 4.8 (00:00) 10 7.22 (05:10) 4.44 (05:20) 0 0 0 0 0
04-12-2019 11.3 (14:50) 1.2 (09:20) 6.3 6.11 (05:30) 4.17 (21:40) 0 0 0 0 0
03-12-2019 12.2 (15:50) 2.6 (00:00) 7.4 8.33 (06:30) 5.83 (06:30) 0 0 0 0 0
02-12-2019 13.8 (13:20) 5.4 (00:00) 9.6 13.89 (15:40) 8.89 (00:50) 0 0 0 0 0
01-12-2019 13.5 (13:30) 7.4 (00:00) 10.5 13.33 (01:00) 7.22 (14:20) 12.3 11.7 0.6 0 0
30-11-2019 15.3 (02:40) 9.6 (00:00) 12.5 15 (05:40) 9.17 (05:40) 15.1 10.1 0.7 0.2 4.1
29-11-2019 15.2 (16:10) 10.4 (00:00) 12.8 9.17 (22:50) 5 (22:00) 3.1 0 0 0 3.1
28-11-2019 14.9 (17:10) 11.8 (07:40) 13.3 16.11 (16:00) 10.28 (17:20) 18.6 6.4 2.9 9.3 0
27-11-2019 13.5 (15:20) 11.5 (00:00) 12.5 13.89 (00:30) 7.78 (00:30) -- 2.5 -- 1.8 1.2
26-11-2019 15.7 (12:00) 11.6 (00:00) 13.7 22.78 (16:30) 12.5 (16:30) 18.6 9.7 0 8.9 0
25-11-2019 14.7 (13:50) 12.1 (09:00) 13.4 13.33 (22:40) 8.33 (23:30) 2.4 1.4 0.8 0 0.2
24-11-2019 15.1 (22:20) 7.6 (00:00) 11.4 17.5 (19:20) 8.89 (19:30) 11.5 0 0 5.6 5.9
23-11-2019 12.8 (13:10) 7.8 (00:00) 10.3 11.39 (01:00) 6.67 (01:00) 2.1 1.3 0.7 0.1 0
22-11-2019 14.2 (13:00) 7.8 (00:00) 11 18.89 (09:20) 10.28 (09:30) 47.7 7.2 20.9 12.4 7.2
21-11-2019 13 (16:00) 6.5 (00:00) 9.8 7.78 (15:30) 5.28 (23:40) 9 6.3 1.3 1.2 0.2
20-11-2019 9.1 (12:50) 7.3 (09:10) 8.2 10.83 (13:50) 5.83 (13:10) 8.6 0 0 8.4 0.2
19-11-2019 9 (22:10) 5.4 (00:00) 7.2 8.89 (12:10) 5.28 (12:10) 8.4 0 1.2 5.3 1.9
18-11-2019 13 (14:50) 4.9 (00:00) 9 8.33 (20:20) 3.89 (02:30) 0 0 0 0 0
17-11-2019 12.8 (14:40) 7.7 (00:00) 10.3 10.28 (14:10) 6.39 (15:50) 7.6 0.5 7.1 0 0
16-11-2019 10.4 (16:20) 2.7 (00:00) 6.5 7.78 (21:40) 4.72 (23:20) 0.4 0 0 0 0.4
15-11-2019 10.3 (14:40) 3.7 (00:00) 7 11.67 (16:00) 7.5 (16:00) 0.9 0 0.1 0.8 0
14-11-2019 11 (15:10) 5.4 (00:00) 8.2 21.67 (12:50) 10.56 (12:50) 17.3 2.4 10.9 3.9 0.1
13-11-2019 15.1 (00:30) 10.4 (00:00) 12.8 15.28 (23:59) 7.5 (01:30) 10.7 5.8 0 0 4.9
12-11-2019 14.9 (23:50) 7.2 (00:00) 11 13.33 (23:59) 6.67 (16:40) 82.4 0 1.4 28.2 52.8
11-11-2019 13.5 (14:40) 8 (23:40) 10.8 11.39 (12:50) 7.5 (14:00) 0.5 0.5 0 0 0

Gráficas

Temp. máximas Temp. mínimas Temp. medias Precipitaciones Rachas de viento máximas Velocidades máximas media en intervalos de 10 minutos

Datos horarios

Fecha y hora oficial Temperatura (ºC) Velocidad del viento (km/h) Dirección del viento Racha (km/h) Dirección de racha Precipitación (mm) Presión (hPa) Tendencia (hPa) Humedad (%)
2019-12-10 23:00:00 9.7 14 Sur 30 Sur 0.2 993.6 -1.2 100
2019-12-10 22:00:00 9.7 15 Sur 24 Sur 0 993.9 -1.2 100
2019-12-10 21:00:00 9.9 14 Sur 24 Sur 0 994.4 -0.7 95
2019-12-10 20:00:00 9.6 11 Sur 18 Sur 0.1 994.8 -0.2 100
2019-12-10 19:00:00 9.8 10 Sudoeste 15 Sur 0 995.1 -0.5 95
2019-12-10 18:00:00 10.3 13 Sur 22 Sur 0 995.1 -1 89
2019-12-10 17:00:00 10.5 15 Sur 22 Sur 0 995 -1.6 81
2019-12-10 16:00:00 11.3 9 Sur 13 Sur 0 995.6 -1.5 69
2019-12-10 15:00:00 11.3 8 Sur 15 Sudoeste 0 996.1 -2.2 63
2019-12-10 14:00:00 9.3 12 Sur 21 Sur 0 996.6 -1.9 80
2019-12-10 13:00:00 6.9 14 Sudoeste 24 Sur 0 997.1 -1.2 100
2019-12-10 12:00:00 6.2 18 Sur 24 Sur 0 998.3 -0.4 100
2019-12-10 11:00:00 4.7 15 Sudoeste 30 Sur 0 998.5 0 100
2019-12-10 10:00:00 3.9 19 Sudoeste 24 Sudoeste 0 998.3 -0.1 100
2019-12-10 09:00:00 4.4 9 Sudoeste 17 Sudoeste 0 998.7 0 100
2019-12-10 08:00:00 4 9 Sudoeste 18 Sudoeste 0 998.5 -0.4 100
2019-12-10 07:00:00 4.1 15 Sudoeste 24 Sudoeste 0 998.4 -0.6 100
2019-12-10 06:00:00 4.3 13 Sudoeste 18 Sur 0 998.7 -0.8 100
2019-12-10 05:00:00 5.3 17 Sudoeste 22 Oeste 0 998.9 -1.4 100
2019-12-10 04:00:00 5.2 14 Sudoeste 21 Sur 0 999 -1.9 100
2019-12-10 03:00:00 6.3 7 Sudoeste 11 Sur 0 999.5 -1.4 100
2019-12-10 02:00:00 6.8 3 Sudoeste 13 Oeste 0 1000.3 -1.1 100
2019-12-10 01:00:00 7 8 Sudoeste 13 Sudoeste 0 1000.9 -0.5 100
2019-12-10 00:00:00 6.4 5 Sudoeste 9 Sudoeste 0 1000.9 -0.6 100
2019-12-09 23:00:00 6.3 0 Calma 8 Sur 0 1001.4 0 100
2019-12-09 22:00:00 6.9 4 Sudoeste 9 Oeste 0 1001.4 0.1 100
2019-12-09 21:00:00 7.8 2 Norte 11 Noroeste 0 1001.5 0.5 100
2019-12-09 20:00:00 8.1 0 Calma 9 Noroeste 0 1001.4 0.5 99
2019-12-09 19:00:00 8.6 6 Oeste 9 Oeste 0 1001.3 0.5 100
2019-12-09 18:00:00 10 8 Oeste 17 Oeste 0 1001 -0.1 100
2019-12-09 17:00:00 10.2 3 Nordeste 11 Este 0 1000.9 -0.8 95
2019-12-09 16:00:00 11.7 4 Sur 8 Sur 0 1000.8 -1.4 90
2019-12-09 15:00:00 11.1 5 Este 9 Este 0 1001.1 -1.9 93
2019-12-09 14:00:00 10.5 4 Sur 13 Este 0 1001.7 -1.2 93
2019-12-09 13:00:00 9.9 9 Este 13 Este 0 1002.2 0.1 100
2019-12-09 12:00:00 8.4 11 Sudoeste 24 Oeste 0 1003 1.7 95
2019-12-09 11:00:00 7.9 5 Oeste 11 Oeste 0 1002.9 1.6 96
2019-12-09 10:00:00 5.9 6 Oeste 17 Sudoeste 0 1002.1 1.2 100
2019-12-09 09:00:00 4.6 10 Sudoeste 15 Sudoeste 0 1001.3 0.6 100
2019-12-09 08:00:00 5.5 7 Sudoeste 15 Sudoeste 0 1001.3 0.8 100
2019-12-09 07:00:00 7.1 4 Noroeste 13 Norte 0 1000.9 0.4 95
2019-12-09 06:00:00 7.1 10 Norte 17 Norte 0 1000.7 0.9 98
2019-12-09 05:00:00 5.8 3 Nordeste 11 Norte 0 1000.5 0.7 100
2019-12-09 04:00:00 6 7 Norte 11 Norte 0 1000.5 0.6 100
2019-12-09 03:00:00 6.3 6 Nordeste 15 Norte 0 999.8 0.3 100
2019-12-09 02:00:00 6.3 7 Norte 13 Norte 0 999.8 0.7 100
2019-12-09 01:00:00 7.1 7 Norte 17 Norte 0 999.9 1 100
2019-12-09 00:00:00 7.9 9 Norte 21 Norte 0 999.5 1.4 100
2019-12-08 23:00:00 8.3 11 Norte 17 Norte 0 999.1 1.6 100
2019-12-08 22:00:00 9.3 13 Norte 18 Norte 0 998.9 2 100
2019-12-08 21:00:00 9.4 8 Norte 15 Noroeste 0 998.1 1.9 100
2019-12-08 20:00:00 10.7 8 Norte 18 Norte 0 997.5 1.9 100
2019-12-08 19:00:00 11.7 7 Norte 17 Norte 0 996.9 1.9 100
2019-12-08 18:00:00 12.5 6 Nordeste 15 Oeste 0 996.2 1.3 100
2019-12-08 17:00:00 12.6 8 Oeste 18 Oeste 0 995.6 0.7 100
2019-12-08 16:00:00 12.9 5 Norte 13 Noroeste 0 995 -0.2 100
2019-12-08 15:00:00 12.6 4 Sudoeste 11 Sur 0 994.9 -0.6 100
2019-12-08 14:00:00 12.4 5 Sur 13 Sur 0.2 994.9 0 100
2019-12-08 13:00:00 11.9 10 Sur 17 Sur 0.2 995.2 0.9 100
2019-12-08 12:00:00 11.7 13 Sur 21 Sur 0.5 995.5 1.9 100
2019-12-08 11:00:00 11.3 13 Sur 21 Sur 1 994.9 1.3 100
2019-12-08 10:00:00 11 15 Sur 21 Sur 3.5 994.3 0.9 100
2019-12-08 09:00:00 10.9 11 Sur 22 Sur 0.7 993.6 0 100
2019-12-08 08:00:00 10.9 11 Sur 22 Sur 1.2 993.6 -0.1 100
2019-12-08 07:00:00 10.8 11 Sur 22 Sur 0.4 993.4 -0.5 100
2019-12-08 06:00:00 10.8 12 Sur 21 Sur 0 993.6 -0.3 100
2019-12-08 05:00:00 10.7 10 Sur 17 Sur 0 993.7 -0.5 100
2019-12-08 04:00:00 10.7 13 Sur 24 Sur 0 993.9 -0.5 100
2019-12-08 03:00:00 10.6 13 Sur 21 Sur 0 993.9 -0.6 100
2019-12-08 02:00:00 10.5 9 Sur 17 Sur 0 994.2 0.1 100
2019-12-08 01:00:00 10.5 10 Sur 18 Sur 0 994.4 0.3 100
2019-12-08 00:00:00 10.6 9 Sur 22 Sur 0 994.5 0.5 100
2019-12-07 23:00:00 10.7 13 Sur 24 Sur 0 994.1 0.2 100
2019-12-07 22:00:00 10.5 11 Sur 21 Sur 0 994.1 0.4 100
2019-12-07 21:00:00 10.6 12 Sur 21 Sur 0 994 0.3 100
2019-12-07 20:00:00 10.5 13 Sur 21 Sur 0.1 993.9 0.5 100
2019-12-07 19:00:00 10 12 Sudoeste 17 Sur 0.1 993.7 0.7 100
2019-12-07 18:00:00 10.4 10 Sudoeste 15 Sur 0 993.7 0.5 100
2019-12-07 17:00:00 10.8 10 Sudoeste 15 Sudoeste 0 993.4 -0.3 100
2019-12-07 16:00:00 10.4 12 Sudoeste 21 Sur 0 993 -1.4 100
2019-12-07 15:00:00 10 15 Sur 22 Sur 0 993.2 -1.6 100
2019-12-07 14:00:00 9.6 12 Sur 21 Sur 0 993.7 -1.1 100
2019-12-07 13:00:00 8.5 10 Sudoeste 18 Sudoeste 0 994.4 0.2 100
2019-12-07 12:00:00 7.1 14 Sudoeste 21 Sudoeste 0 994.8 1 100
2019-12-07 11:00:00 6.7 13 Sudoeste 17 Sudoeste 0 994.8 1.4 100
2019-12-07 10:00:00 5.1 13 Sudoeste 18 Sudoeste 0 994.2 1.2 100
2019-12-07 09:00:00 5.8 15 Sudoeste 18 Sudoeste 0 993.8 0.9 100
2019-12-07 08:00:00 5.7 10 Sudoeste 17 Sudoeste 0 993.4 0.4 100
2019-12-07 07:00:00 6.1 10 Sudoeste 15 Sudoeste 0 993 -0.1 100
2019-12-07 06:00:00 6.3 11 Sudoeste 13 Sudoeste 0 992.9 -0.1 100
2019-12-07 05:00:00 7 4 Oeste 8 Oeste 0 993 -0.2 100
2019-12-07 04:00:00 7.5 6 Sudoeste 15 Sudoeste 0 993.1 -0.5 100
2019-12-07 03:00:00 6.6 10 Sudoeste 13 Sudoeste 0 993 -0.8 100
2019-12-07 02:00:00 7.7 8 Sudoeste 13 Sudoeste 0 993.2 -0.4 100
2019-12-07 01:00:00 6.9 6 Oeste 9 Oeste 0 993.6 0 100
2019-12-07 00:00:00 7.7 3 Norte 9 Norte 0 993.8 0.7 100
2019-12-06 23:00:00 8 4 Noroeste 9 Noroeste 0 993.6 1 100
2019-12-06 22:00:00 7.7 6 Oeste 9 Norte 0 993.6 1.2 100
2019-12-06 21:00:00 8.3 5 Noroeste 13 Oeste 0 993.1 0.8 100
2019-12-06 20:00:00 8.7 9 Noroeste 13 Noroeste 0 992.6 0.6 100
2019-12-06 19:00:00 8.7 5 Noroeste 13 Oeste 0 992.4 0.8 100
2019-12-06 18:00:00 10.9 6 Sudoeste 13 Oeste 0 992.3 0.1 92
2019-12-06 17:00:00 11.8 3 Norte 9 Norte 0 992 -0.9 83
2019-12-06 16:00:00 13.7 7 Sur 13 Sur 0 991.6 -1.6 74
2019-12-06 15:00:00 13.6 4 Este 11 Nordeste 0 992.2 -1.4 74
2019-12-06 14:00:00 11.8 3 Este 17 Sudoeste 0 992.9 -1 82
2019-12-06 13:00:00 8.6 12 Sudoeste 17 Sudoeste 0 993.2 0 96
2019-12-06 12:00:00 8.8 12 Sudoeste 15 Sur 0 993.6 1.2 93
2019-12-06 11:00:00 9.2 9 Sur 13 Sur 0 993.9 1.8 95
2019-12-06 10:00:00 7 11 Sudoeste 18 Sudoeste 0 993.2 1.1 100
2019-12-06 09:00:00 5.9 15 Sudoeste 22 Sudoeste 0 992.4 0.7 100
2019-12-06 08:00:00 6.8 14 Sudoeste 17 Sudoeste 0 992.1 0.6 100
2019-12-06 07:00:00 6.8 8 Sudoeste 17 Sudoeste 0 992.1 0.1 100
2019-12-06 06:00:00 6.4 14 Sudoeste 22 Sudoeste 0 991.7 0 100
2019-12-06 05:00:00 6.8 15 Sudoeste 24 Sur 0 991.5 -0.4 100
2019-12-06 04:00:00 7.1 13 Sudoeste 18 Sur 0 992 -0.2 100
2019-12-06 03:00:00 7.1 14 Sudoeste 21 Sudoeste 0 991.7 -0.1 100
2019-12-06 02:00:00 7.6 6 Sudoeste 11 Sur 0 991.9 0.1 100
2019-12-06 01:00:00 8.3 8 Sudoeste 13 Sur 0 992.2 1 97
2019-12-06 00:00:00 8.8 11 Sudoeste 15 Sudoeste 0 991.8 0.7 97
2019-12-05 23:00:00 7.5 4 Oeste 5 Oeste 0 991.8 1.3 100
2019-12-05 22:00:00 8.8 0 Calma 5 Noroeste 0 991.2 1.1 92
2019-12-05 21:00:00 9.8 4 Nordeste 15 Norte 0 991.1 1.3 92
2019-12-05 20:00:00 9.9 5 Noroeste 15 Noroeste 0 990.5 0.9 87
2019-12-05 19:00:00 9.5 4 Oeste 9 Oeste 0 990.1 0.9 95
2019-12-05 18:00:00 12.1 5 Oeste 11 Nordeste 0 989.8 0.3 78
2019-12-05 17:00:00 14.4 2 Sur 11 Sudoeste 0 989.6 -0.3 67
2019-12-05 16:00:00 14.9 6 Sur 15 Nordeste 0 989.2 -1.3 65
2019-12-05 15:00:00 14.4 7 Nordeste 17 Nordeste 0 989.5 -1.3 67
2019-12-05 14:00:00 14 9 Nordeste 13 Este 0 989.9 -0.3 67
2019-12-05 13:00:00 13.1 7 Nordeste 13 Nordeste 0 990.5 1.6 68
2019-12-05 12:00:00 11.9 4 Sudeste 11 Este 0 990.8 2.8 68
2019-12-05 11:00:00 8.8 7 Sudoeste 15 Sur 0 990.2 2.5 77
2019-12-05 10:00:00 8.7 3 Sur 11 Norte 0 988.9 1.7 78
2019-12-05 09:00:00 6.2 4 Norte 9 Sudoeste 0 988 1 89
2019-12-05 08:00:00 7.2 5 Nordeste 15 Norte 0 987.7 0.6 85
2019-12-05 07:00:00 7.1 6 Este 22 Norte 0 987.2 0.5 84
2019-12-05 06:00:00 6.9 14 Nordeste 26 Norte 0 987 0.6 85
2019-12-05 05:00:00 5.9 12 Nordeste 18 Norte 0 987.1 0.7 92
2019-12-05 04:00:00 5.7 4 Este 18 Norte 0 986.7 0 85
2019-12-05 03:00:00 5.3 7 Nordeste 17 Norte 0 986.4 0 86
2019-12-05 02:00:00 5.6 12 Norte 18 Norte 0 986.4 0.1 79
2019-12-05 01:00:00 6.1 4 Norte 9 Norte 0 986.7 0.6 69
2019-12-05 00:00:00 5.9 3 Nordeste 11 Norte 0 986.4 1.1 75
2019-12-04 23:00:00 5.6 13 Norte 17 Norte 0 986.3 1.5 86
2019-12-04 22:00:00 6.5 8 Norte 21 Norte 0 986.1 2 82
2019-12-04 21:00:00 7 12 Norte 18 Norte 0 985.3 1.9 82
2019-12-04 20:00:00 8.1 12 Norte 17 Norte 0 984.8 1.6 78
2019-12-04 19:00:00 8.6 12 Norte 17 Norte 0 984.1 1.3 80
2019-12-04 18:00:00 8.9 10 Norte 13 Norte 0 983.4 0.5 73
2019-12-04 17:00:00 10.1 8 Norte 17 Norte 0 983.2 0.1 64
2019-12-04 16:00:00 10.7 6 Nordeste 13 Norte 0 982.8 -0.6 57
2019-12-04 15:00:00 11.1 7 Nordeste 13 Nordeste 0 982.9 -1 60
2019-12-04 14:00:00 10.4 8 Nordeste 13 Nordeste 0 983.1 -0.4 59
2019-12-04 13:00:00 9.4 5 Este 11 Este 0 983.4 0.3 67
2019-12-04 12:00:00 6.4 4 Sudeste 13 Sudoeste 0 983.9 1.3 81
2019-12-04 11:00:00 4 7 Sudoeste 17 Sudoeste 0 983.5 1.3 90
2019-12-04 10:00:00 1.8 10 Sudoeste 15 Sudoeste 0 983.1 1 100
2019-12-04 09:00:00 1.6 9 Sudoeste 15 Sudoeste 0 982.6 0.6 100
2019-12-04 08:00:00 1.7 7 Sudoeste 13 Sur 0 982.2 -0.3 98
2019-12-04 07:00:00 2.7 11 Sur 17 Sur 0 982.1 -0.5 90
2019-12-04 06:00:00 1.8 11 Sudoeste 22 Sur 0 982 -0.9 100
2019-12-04 05:00:00 2.3 10 Sudoeste 17 Sudoeste 0 982.5 -0.8 100
2019-12-04 04:00:00 3 7 Sudoeste 13 Oeste 0 982.6 -0.9 98
2019-12-04 03:00:00 3.3 12 Sudoeste 18 Sudoeste 0 982.9 -1 99
2019-12-04 02:00:00 3.5 14 Sudoeste 18 Sudoeste 0 983.3 -0.7 97
2019-12-04 01:00:00 3.8 12 Sudoeste 18 Sudoeste 0 983.5 -0.6 100
2019-12-04 00:00:00 4.9 7 Sudoeste 15 Sudoeste 0 983.9 -0.2 95
2019-12-03 23:00:00 5.1 8 Sudoeste 13 Sur 0 984 0.1 92
2019-12-03 22:00:00 4.6 4 Oeste 15 Oeste 0 984.1 0.2 98
2019-12-03 21:00:00 5.3 5 Oeste 15 Oeste 0 984.1 0 94
2019-12-03 20:00:00 5.9 4 Noroeste 13 Oeste 0 983.9 -0.3 86
2019-12-03 19:00:00 5.9 6 Noroeste 24 Oeste 0 983.9 -0.5 89
2019-12-03 18:00:00 7.8 8 Oeste 11 Oeste 0 984.1 -0.8 79
2019-12-03 17:00:00 11.1 2 Oeste 11 Oeste 0 984.2 -1.4 58
2019-12-03 16:00:00 11.2 6 Nordeste 11 Sur 0 984.4 -2.2 60
2019-12-03 15:00:00 11.1 5 Sur 13 Sur 0 984.9 -2.6 60
2019-12-03 14:00:00 10 6 Sur 13 Sur 0 985.6 -1.9 63
2019-12-03 13:00:00 8.3 8 Sudoeste 18 Sudoeste 0 986.6 -0.7 69
2019-12-03 12:00:00 6.9 11 Sur 18 Sur 0 987.5 0 77
2019-12-03 11:00:00 4.9 10 Sur 18 Sur 0 987.5 -0.2 87
2019-12-03 10:00:00 3.6 14 Sudoeste 24 Sur 0 987.3 -0.2 92
2019-12-03 09:00:00 2.8 17 Sur 26 Sur 0 987.5 0 95
2019-12-03 08:00:00 2.6 16 Sudoeste 22 Sudoeste 0 987.7 -0.4 99
2019-12-03 07:00:00 3.5 14 Sudoeste 30 Sudoeste 0 987.5 -1.1 94
2019-12-03 06:00:00 3.5 16 Sudoeste 24 Sudoeste 0 987.5 -1.5 95
2019-12-03 05:00:00 4.3 16 Sur 24 Sudoeste 0 988.1 -1.4 92
2019-12-03 04:00:00 4.4 12 Sudoeste 22 Sur 0 988.6 -1.1 93
2019-12-03 03:00:00 5 2 Sur 9 Sudoeste 0 989 -0.9 90
2019-12-03 02:00:00 4.8 5 Sudoeste 9 Sudoeste 0 989.5 -0.1 90
2019-12-03 01:00:00 4.9 3 Oeste 9 Noroeste 0 989.7 0.2 91
2019-12-03 00:00:00 5.7 6 Noroeste 18 Oeste 0 989.9 0.6 87
2019-12-02 23:00:00 6.3 5 Noroeste 17 Norte 0 989.6 0.7 83
2019-12-02 22:00:00 8.9 10 Nordeste 30 Norte 0 989.5 0.6 67
2019-12-02 21:00:00 7.6 5 Norte 33 Nordeste 0 989.3 0.8 77
2019-12-02 20:00:00 8.4 18 Nordeste 30 Nordeste 0 988.9 0.3 74
2019-12-02 19:00:00 9.8 17 Nordeste 37 Nordeste 0 988.9 0.7 64
2019-12-02 18:00:00 10.3 21 Nordeste 42 Nordeste 0 988.5 0.2 65
2019-12-02 17:00:00 11.5 15 Nordeste 35 Nordeste 0 988.6 -0.5 62
2019-12-02 16:00:00 12.5 19 Nordeste 50 Nordeste 0 988.2 -1.9 59
2019-12-02 15:00:00 13.2 21 Nordeste 37 Nordeste 0 988.3 -2.2 59
2019-12-02 14:00:00 13.2 16 Nordeste 41 Nordeste 0 989.1 -1.3 58
2019-12-02 13:00:00 13.4 15 Nordeste 41 Nordeste 0 990.1 0.2 61
2019-12-02 12:00:00 12.9 24 Nordeste 42 Nordeste 0 990.5 0.9 63
2019-12-02 11:00:00 11.8 14 Este 37 Nordeste 0 990.4 1.2 74
2019-12-02 10:00:00 9.2 13 Nordeste 22 Nordeste 0 989.9 1.4 86
2019-12-02 09:00:00 7.5 3 Norte 17 Noroeste 0 989.6 1.4 90
2019-12-02 08:00:00 7.2 8 Norte 18 Norte 0 989.2 1.1 92
2019-12-02 07:00:00 6.9 10 Nordeste 26 Nordeste 0 988.5 0.1 99
2019-12-02 06:00:00 7.3 12 Nordeste 32 Norte 0 988.2 -0.4 93
2019-12-02 05:00:00 8.2 23 Norte 42 Norte 0 988.1 -0.1 85
2019-12-02 04:00:00 7.8 23 Norte 32 Nordeste 0 988.4 0.5 88
2019-12-02 03:00:00 7.7 12 Nordeste 26 Norte 0 988.6 0.5 86
2019-12-02 02:00:00 7.4 15 Nordeste 45 Norte 0 988.2 -0.3 89
2019-12-02 01:00:00 8.5 28 Norte 48 Norte 0 987.9 -0.2 78
2019-12-02 00:00:00 7.9 16 Nordeste 30 Norte 0 988.1 0.4 87
2019-12-01 23:00:00 7.8 10 Nordeste 28 Nordeste 0 988.5 1.3 86
2019-12-01 22:00:00 8.6 17 Nordeste 37 Nordeste 0 988.1 2.2 79
2019-12-01 21:00:00 9.5 17 Nordeste 33 Norte 0 987.7 3 78
2019-12-01 20:00:00 10.3 19 Norte 42 Norte 0 987.2 3.2 80
2019-12-01 19:00:00 10.5 26 Norte 41 Norte 0 985.9 2.4 88
2019-12-01 18:00:00 11.1 19 Nordeste 39 Norte 0 984.7 1.5 84
2019-12-01 17:00:00 12.5 18 Nordeste 42 Nordeste 0 984 1.2 68
2019-12-01 16:00:00 12.5 18 Nordeste 35 Nordeste 0 983.5 0.9 71
2019-12-01 15:00:00 12.7 13 Nordeste 45 Norte 0 983.2 0.5 76
2019-12-01 14:00:00 12.7 25 Nordeste 45 Nordeste 0 982.8 1.3 70
2019-12-01 13:00:00 12.5 22 Norte 42 Norte 0 982.6 2.3 74
2019-12-01 12:00:00 11.9 13 Norte 28 Norte 0 982.7 4.3 83
2019-12-01 11:00:00 10.4 16 Nordeste 33 Norte 0 981.5 4.8 98
2019-12-01 10:00:00 8.6 22 Norte 33 Norte 0 980.3 5.5 100
2019-12-01 09:00:00 8.7 11 Nordeste 22 Norte 0 978.4 4.1 100
2019-12-01 08:00:00 9.6 13 Norte 18 Norte 0 976.7 1.9 100
2019-12-01 07:00:00 9.8 14 Este 24 Este 0.6 974.8 -0.8 100
2019-12-01 06:00:00 10.2 9 Sudeste 35 Sur 0.1 974.3 -2 100
2019-12-01 05:00:00 9.9 12 Sudoeste 32 Sudoeste 2.7 974.8 -2.4 100
2019-12-01 04:00:00 10.3 11 Sudoeste 24 Sur 1.5 975.6 -3.1 100
2019-12-01 03:00:00 9.2 12 Sur 21 Sur 1.1 976.3 -2.9 100
2019-12-01 02:00:00 9.5 8 Sur 37 Sudoeste 0.1 977.2 -3.5 100
2019-12-01 01:00:00 10.3 23 Sudoeste 48 Sudoeste 6.2 978.7 -3.3 100
2019-12-01 00:00:00 9.7 15 Sur 32 Sur 2.1 979.2 -3.8 100
2019-11-30 23:00:00 9.7 15 Sur 28 Sur 0 980.7 -2.8 100
2019-11-30 22:00:00 9.8 14 Sur 24 Sur 0.5 982 -2 100
2019-11-30 21:00:00 10.3 10 Sur 37 Sudoeste 1.1 983 -1.3 100
2019-11-30 20:00:00 10.7 13 Sur 24 Sudoeste 0.4 983.5 -1.2 99
2019-11-30 19:00:00 11.1 18 Sur 35 Sudoeste 0 984 -0.9 94
2019-11-30 18:00:00 12 16 Sur 30 Sudoeste 0 984.3 -0.9 95
2019-11-30 17:00:00 12.9 19 Sudoeste 37 Sudoeste 0.2 984.7 -1.1 85
2019-11-30 16:00:00 13.8 25 Sudoeste 41 Sudoeste 0 984.9 -1.2 71
2019-11-30 15:00:00 13.8 25 Sudoeste 41 Sudoeste 0 985.2 -1.5 69
2019-11-30 14:00:00 13.8 26 Sudoeste 41 Sudoeste 0 985.8 -0.8 77
2019-11-30 13:00:00 14.1 18 Sudoeste 32 Oeste 0 986.1 -0.2 78
2019-11-30 12:00:00 13.7 15 Sudoeste 28 Sudoeste 0 986.7 0.8 86
2019-11-30 11:00:00 12.5 9 Sur 18 Sudoeste 0 986.6 0.9 96
2019-11-30 10:00:00 11.1 4 Sur 17 Sudoeste 0 986.3 0.9 98
2019-11-30 09:00:00 11.9 12 Sudoeste 42 Oeste 0 985.9 1 87
2019-11-30 08:00:00 12.9 14 Sudoeste 30 Sudoeste 0 985.7 0.5 100
2019-11-30 07:00:00 13.6 14 Oeste 42 Oeste 0.7 985.4 -0.1 100
2019-11-30 06:00:00 14.2 24 Oeste 54 Sudoeste 1 984.9 -0.6 100
2019-11-30 05:00:00 14.9 25 Sudoeste 48 Sudoeste 0 985.2 -0.8 100
2019-11-30 04:00:00 15.1 26 Sudoeste 52 Sudoeste 1.8 985.5 -0.7 100
2019-11-30 03:00:00 15.3 30 Sudoeste 46 Sur 1.4 985.5 -0.6 100
2019-11-30 02:00:00 15.1 24 Sudoeste 50 Sudoeste 0.1 986 -0.7 100
2019-11-30 01:00:00 14.9 27 Sudoeste 52 Sudoeste 5.8 986.2 -0.9 100
2019-11-30 00:00:00 14.8 18 Sur 28 Sur 1.9 986.1 -1.3 100
2019-11-29 23:00:00 14.7 18 Sur 33 Sur 0.6 986.7 -0.8 100
2019-11-29 22:00:00 14.3 18 Sur 26 Sur 0.6 987.1 -0.5 100
2019-11-29 21:00:00 14.1 15 Sur 24 Sur 0 987.4 -0.1 100
2019-11-29 20:00:00 14.1 12 Sur 21 Sur 0 987.5 -0.1 100
2019-11-29 19:00:00 14.2 10 Sur 18 Sur 0 987.6 0.1 100
2019-11-29 18:00:00 14.5 9 Sur 15 Sur 0 987.5 -0.4 100
2019-11-29 17:00:00 14.9 8 Sur 22 Sur 0 987.6 -1 98
2019-11-29 16:00:00 14.7 6 Sur 22 Sur 0 987.5 -1.8 99
2019-11-29 15:00:00 14.5 11 Sur 18 Sur 0 987.9 -1.6 99
2019-11-29 14:00:00 14.2 11 Sur 15 Sur 0 988.6 -0.7 97
2019-11-29 13:00:00 13.5 11 Sur 17 Sur 0 989.3 0.7 100
2019-11-29 12:00:00 12.4 9 Sudoeste 13 Sudoeste 0 989.5 1.5 100
2019-11-29 11:00:00 12.2 2 Sur 18 Sudoeste 0 989.3 1.3 100
2019-11-29 10:00:00 11.6 15 Sur 18 Sur 0 988.6 1.1 100
2019-11-29 09:00:00 11.1 5 Sudoeste 13 Sur 0 988 0.5 100
2019-11-29 08:00:00 11.1 8 Sur 13 Sur 0 988 1.2 100
2019-11-29 07:00:00 10.9 8 Sudoeste 11 Sudoeste 0 987.5 1.3 100
2019-11-29 06:00:00 11 4 Norte 13 Sudoeste 0 987.5 1.5 100
2019-11-29 05:00:00 11.3 7 Sudoeste 13 Sudoeste 0 986.8 0.9 100
2019-11-29 04:00:00 11.6 9 Sudoeste 13 Sudoeste 0 986.2 0.5 100
2019-11-29 03:00:00 11.1 5 Sudoeste 9 Sudoeste 0 986 0.8 100
2019-11-29 02:00:00 10.9 5 Oeste 8 Oeste 0 985.9 1.2 100
2019-11-29 01:00:00 11.8 7 Oeste 13 Oeste 0 985.7 1.6 100
2019-11-29 00:00:00 12.2 8 Sudoeste 15 Oeste 0 985.2 1.8 100
2019-11-28 23:00:00 12.5 6 Sur 15 Sudoeste 0 984.7 2 100
2019-11-28 22:00:00 13.3 6 Sudoeste 18 Oeste 0 984.1 2 100
2019-11-28 21:00:00 13.7 12 Oeste 24 Sudoeste 0 983.4 2.1 100
2019-11-28 20:00:00 14.2 10 Oeste 32 Oeste 0 982.7 2 100
2019-11-28 19:00:00 14.6 20 Sudoeste 46 Sudoeste 0 982.1 1.7 100
2019-11-28 18:00:00 14.8 27 Sudoeste 52 Sur 0.9 981.3 1 100
2019-11-28 17:00:00 14.8 30 Sudoeste 55 Sudoeste 2.2 980.7 -0.5 100
2019-11-28 16:00:00 14.6 32 Sudoeste 58 Sudoeste 1.9 980.4 -1.9 100
2019-11-28 15:00:00 13 20 Sur 42 Sur 2.4 980.3 -2.8 100
2019-11-28 14:00:00 12.7 29 Sur 45 Sur 0.3 981.2 -1.9 100
2019-11-28 13:00:00 12.5 18 Sur 30 Sur 1.6 982.3 -0.8 100
2019-11-28 12:00:00 12.5 19 Sur 32 Sur 0.1 983.1 0.9 100
2019-11-28 11:00:00 12.5 14 Sur 21 Sur 0.5 983.1 1.1 100
2019-11-28 10:00:00 12.1 15 Sudoeste 22 Sur 0.2 983.1 1.6 100
2019-11-28 09:00:00 11.9 5 Sudoeste 15 Sudoeste 0 982.2 1.2 100
2019-11-28 08:00:00 11.8 7 Oeste 24 Oeste 0.9 982 1.1 100
2019-11-28 07:00:00 12.2 13 Oeste 26 Oeste 1.2 981.5 0.3 100
2019-11-28 06:00:00 12.9 14 Oeste 24 Sudoeste 1.1 981 0.1 100
2019-11-28 05:00:00 14.1 18 Sur 37 Sudoeste 0.5 980.9 -0.3 100
2019-11-28 04:00:00 14.3 24 Sudoeste 39 Sudoeste 0.1 981.2 -0.5 100
2019-11-28 03:00:00 14 27 Sudoeste 41 Sudoeste 0.4 980.9 -1.1 100
2019-11-28 02:00:00 12.9 13 Sur 22 Sur 2.3 981.2 -0.7 100
2019-11-28 01:00:00 12.8 17 Sur 22 Sur 2 981.7 -0.1 100
2019-11-28 00:00:00 12.5 13 Sur 21 Sur 0.1 982 0.4 100
2019-11-27 23:00:00 13 17 Sur 33 Sudoeste 0.2 981.9 0.7 100
2019-11-27 22:00:00 13.1 20 Sudoeste 33 Sudoeste 0.1 981.8 0.4 100
2019-11-27 21:00:00 12.8 21 Sudoeste 37 Sudoeste 0.3 981.6 0.6 100
2019-11-27 20:00:00 12.2 15 Sur 26 Sudoeste 0.1 981.2 0.6 100
2019-11-27 19:00:00 12.1 15 Sudoeste 30 Sudoeste 0.4 981.4 1.3 100
2019-11-27 18:00:00 12.2 19 Sudoeste 37 Sudoeste 0 981 0.5 99
2019-11-27 17:00:00 12.3 22 Sudoeste 37 Sudoeste 0.2 980.6 -0.4 100
2019-11-27 16:00:00 13.2 19 Sudoeste 39 Sur 0 980.1 -0.9 94
2019-11-27 15:00:00 13.1 16 Sudoeste 30 Sudoeste 0 980.5 -0.8 95
2019-11-27 14:00:00 11.9 16 Sudoeste 35 Sudoeste 1.6 981 -0.2 100
2019-11-27 06:00:00 11.8 10 Sudoeste 35 Sudoeste 1.4 978.9 0 100
2019-11-27 05:00:00 12 17 Sur 35 Sudoeste 0 978.9 0.5 100
2019-11-27 04:00:00 12.1 17 Sudoeste 37 Sudoeste 0.3 979.1 0.6 100
2019-11-27 03:00:00 11.8 15 Sudoeste 33 Sudoeste 0.7 978.9 1 100
2019-11-27 02:00:00 12.4 23 Sur 35 Sudoeste 0 978.4 0.6 96
2019-11-27 01:00:00 12.1 19 Sudoeste 50 Sudoeste 0.1 978.5 1.2 97
2019-11-27 00:00:00 11.6 21 Sur 39 Sudoeste 0 977.9 1 99
2019-11-26 23:00:00 12.1 22 Sudoeste 35 Sudoeste 0 977.8 1.7 90
2019-11-26 22:00:00 12.4 19 Sudoeste 35 Sudoeste 0 977.3 2.1 87
2019-11-26 21:00:00 12.1 12 Sudoeste 33 Sudoeste 0 976.9 2.5 93
2019-11-26 20:00:00 12.6 19 Sudoeste 41 Sudoeste 0 976.1 2.8 96
2019-11-26 19:00:00 12.5 28 Sudoeste 46 Sudoeste 0 975.2 1.6 95
2019-11-26 18:00:00 12.6 22 Sudoeste 63 Sudoeste 1.5 974.4 0.2 98
2019-11-26 17:00:00 14 39 Sudoeste 82 Sudoeste 1.3 973.3 -1 96
2019-11-26 16:00:00 15.1 37 Sudoeste 65 Sudoeste 0.1 973.6 -1.8 91
2019-11-26 15:00:00 14.4 40 Sudoeste 68 Sudoeste 3.1 974.2 -2.7 99
2019-11-26 14:00:00 13.9 28 Sur 48 Sur 2.9 974.3 -3 100
2019-11-26 13:00:00 14.9 26 Sur 45 Sur 0 975.4 -2.6 98
2019-11-26 12:00:00 15.6 24 Sur 37 Sur 0 976.9 -1.4 96
2019-11-26 11:00:00 14.7 23 Sur 41 Sur 0 977.3 -1.4 98
2019-11-26 10:00:00 13.8 13 Sur 24 Sur 0 978 -0.7 100
2019-11-26 09:00:00 13.6 13 Sur 22 Sudeste 0 978.3 -0.1 100
2019-11-26 08:00:00 14.1 15 Sur 32 Sudoeste 0 978.7 0.4 100
2019-11-26 07:00:00 14.4 19 Sudoeste 33 Sudoeste 0 978.7 0 100
2019-11-26 06:00:00 14.5 15 Sudoeste 45 Sudoeste 0 978.4 -0.5 100
2019-11-26 05:00:00 14.9 22 Sudoeste 41 Sudoeste 1.9 978.3 -1.4 100
2019-11-26 04:00:00 14.9 15 Sur 28 Sudoeste 2.8 978.7 -2 100
2019-11-26 03:00:00 14.4 19 Sur 33 Sur 2.6 978.9 -2.3 100
2019-11-26 02:00:00 13.9 21 Sur 33 Sur 1.8 979.7 -2.1 100
2019-11-26 01:00:00 13.5 19 Sur 39 Sur 0.6 980.7 -1.4 100
2019-11-26 00:00:00 13.4 27 Sur 48 Sur 0.2 981.2 -1.4 100
2019-11-25 23:00:00 13.3 28 Sur 48 Sur 0 981.8 -1.5 100
2019-11-25 22:00:00 13.4 27 Sur 46 Sudeste 0 982.1 -1.5 100
2019-11-25 21:00:00 13.2 19 Sur 30 Sur 0 982.6 -1.2 100
2019-11-25 20:00:00 12.9 17 Sur 28 Sur 0 983.3 -0.4 100
2019-11-25 19:00:00 13 17 Sur 30 Sur 0 983.6 0.2 100
2019-11-25 18:00:00 13.3 8 Sudoeste 37 Sur 0 983.8 0.1 100
2019-11-25 17:00:00 13.8 21 Sur 28 Sur 0 983.7 0 99
2019-11-25 16:00:00 14.3 17 Sur 26 Sur 0 983.4 -0.5 96
2019-11-25 15:00:00 14.5 15 Sur 24 Sur 0 983.7 -0.5 96
2019-11-25 14:00:00 14.4 12 Sur 26 Sudoeste 0 983.7 -0.2 96
2019-11-25 13:00:00 14.1 10 Sur 22 Sudeste 0 983.9 0.6 100
2019-11-25 12:00:00 13 9 Sur 17 Sur 0 984.2 1.4 100
2019-11-25 11:00:00 12.4 6 Sudeste 13 Sur 0 983.9 1.7 100
2019-11-25 10:00:00 12.2 3 Sur 15 Sudoeste 0 983.3 2 100
2019-11-25 09:00:00 12.1 6 Sudoeste 24 Oeste 0.7 982.8 1.4 100
2019-11-25 08:00:00 12.5 14 Sudoeste 32 Sudoeste 0.1 982.2 1.1 100
2019-11-25 07:00:00 12.6 12 Sur 21 Sur 0 981.3 0.2 100
2019-11-25 06:00:00 12.9 9 Sur 22 Sudoeste 0 981.4 0.8 100
2019-11-25 05:00:00 12.9 12 Sudoeste 22 Sudoeste 0 981.1 0.6 100
2019-11-25 04:00:00 12.8 12 Sudoeste 32 Sudoeste 0.1 981.1 0.3 100
2019-11-25 03:00:00 13.1 23 Sudoeste 46 Sudoeste 0.5 980.6 0.2 100
2019-11-25 02:00:00 13.8 16 Sur 35 Sudoeste 0.8 980.5 0.7 100
2019-11-25 01:00:00 14.1 13 Sudoeste 37 Sudoeste 0 980.8 1.4 100
2019-11-25 00:00:00 14.5 24 Sudoeste 48 Sudoeste 0 980.4 1 100
2019-11-24 23:00:00 14.7 26 Sudoeste 45 Sudoeste 0.1 979.8 0.7 100
2019-11-24 22:00:00 15 20 Sudoeste 39 Sudoeste 0.1 979.4 1.1 100
2019-11-24 21:00:00 14.9 23 Sudoeste 50 Sudoeste 0 979.4 0.6 100
2019-11-24 20:00:00 14.9 28 Sudoeste 63 Sudoeste 1.6 979.1 0.2 100
2019-11-24 19:00:00 13.6 15 Sur 39 Sur 4.1 978.3 -1 100
2019-11-24 18:00:00 13.5 23 Sur 45 Sudoeste 1 978.8 -1.5 100
2019-11-24 17:00:00 12.1 28 Sur 42 Sur 2.9 978.9 -2.6 100
2019-11-24 16:00:00 11.3 18 Sur 41 Sur 0.5 979.3 -2.9 100
2019-11-24 15:00:00 10.7 27 Sur 45 Sur 0.5 980.3 -2.8 100
2019-11-24 14:00:00 10.2 27 Sur 42 Sur 0.7 981.5 -2 100
2019-11-24 13:00:00 9.9 26 Sur 46 Sur 0 982.2 -1.6 100
2019-11-24 12:00:00 9.8 24 Sur 42 Sur 0 983.1 -0.5 100
2019-11-24 11:00:00 9.5 20 Sur 32 Sur 0 983.5 0 100
2019-11-24 10:00:00 8.9 15 Sur 30 Sur 0 983.8 0.3 100
2019-11-24 09:00:00 8.4 17 Sur 26 Sur 0 983.6 0.3 100
2019-11-24 08:00:00 8.1 15 Sur 22 Sur 0 983.5 -0.4 100
2019-11-24 07:00:00 8 12 Sur 22 Sur 0 983.5 -0.7 100
2019-11-24 06:00:00 8 12 Sur 21 Sur 0 983.3 -0.6 100
2019-11-24 05:00:00 8.3 9 Sudoeste 13 Sur 0 983.9 0.1 100
2019-11-24 04:00:00 8.2 8 Sur 13 Sur 0 984.2 0.3 100
2019-11-24 03:00:00 8.4 9 Sur 13 Sur 0 983.9 0.1 100
2019-11-24 02:00:00 8.4 8 Sur 11 Sur 0 983.8 0 100
2019-11-24 01:00:00 8.4 9 Sur 13 Sur 0 983.9 0.4 100
2019-11-24 00:00:00 8.1 8 Sudoeste 9 Sudoeste 0 983.8 0.5 100
2019-11-23 23:00:00 9.1 5 Sudoeste 11 Oeste 0 983.8 0.8 100
2019-11-23 22:00:00 8.1 8 Sudoeste 9 Sudoeste 0 983.5 1.3 100
2019-11-23 21:00:00 9.2 5 Sudoeste 13 Noroeste 0 983.3 2.1 100
2019-11-23 20:00:00 10.3 8 Noroeste 17 Noroeste 0 983 2.6 95
2019-11-23 19:00:00 10.6 11 Noroeste 22 Oeste 0 982.2 2.6 96
2019-11-23 18:00:00 11 15 Noroeste 30 Oeste 0 981.2 2 90
2019-11-23 17:00:00 11.2 19 Noroeste 37 Noroeste 0 980.4 1.4 90
2019-11-23 16:00:00 11.8 22 Noroeste 37 Oeste 0 979.6 0.9 86
2019-11-23 15:00:00 12.2 19 Oeste 30 Oeste 0.1 979.2 0.6 86
2019-11-23 14:00:00 12.3 18 Oeste 32 Oeste 0 979 1.5 83
2019-11-23 13:00:00 12.3 13 Oeste 26 Oeste 0 978.7 2.1 80
2019-11-23 12:00:00 11.8 11 Oeste 26 Oeste 0 978.6 3.3 83
2019-11-23 11:00:00 11.1 10 Sudoeste 18 Sudoeste 0 977.5 3.3 90
2019-11-23 10:00:00 9.5 6 Oeste 17 Oeste 0 976.6 3.6 97
2019-11-23 09:00:00 8.9 10 Oeste 21 Oeste 0.2 975.3 3.3 97
2019-11-23 08:00:00 8.7 7 Noroeste 15 Noroeste 0.5 974.2 3.2 100
2019-11-23 07:00:00 8.1 5 Sudoeste 11 Oeste 0 973 2.6 100
2019-11-23 06:00:00 8 3 Oeste 21 Norte 1.2 972 2.8 100
2019-11-23 05:00:00 8.7 8 Oeste 17 Noroeste 0 971 2.9 97
2019-11-23 04:00:00 9.2 10 Oeste 33 Noroeste 0.1 970.4 3.5 92
2019-11-23 03:00:00 9.5 14 Noroeste 35 Noroeste 0 969.2 3.5 77
2019-11-23 02:00:00 10 17 Noroeste 37 Noroeste 0 968.1 3.2 79
2019-11-23 01:00:00 9.5 24 Noroeste 41 Noroeste 0 966.9 3.3 87
2019-11-23 00:00:00 8.9 21 Noroeste 50 Oeste 1.4 965.7 3.6 90
2019-11-22 23:00:00 9.2 25 Oeste 48 Oeste 3 964.9 4.2 93
2019-11-22 22:00:00 10.6 20 Oeste 65 Oeste 0.4 963.6 3.9 78
2019-11-22 21:00:00 10.3 23 Oeste 59 Oeste 0.2 962.1 2.8 90
2019-11-22 20:00:00 10.5 25 Oeste 55 Oeste 2.1 960.7 3.7 99
2019-11-22 19:00:00 11.1 19 Oeste 50 Oeste 0.1 959.7 2.8 98
2019-11-22 18:00:00 11.5 21 Oeste 55 Oeste 2.9 959.3 1.7 94
2019-11-22 17:00:00 12.3 31 Sudoeste 59 Oeste 4 957 -1.1 100
2019-11-22 16:00:00 12.5 34 Sudoeste 58 Sudoeste 0 956.9 -2 99
2019-11-22 15:00:00 11.8 26 Sudoeste 63 Sudoeste 2.5 957.6 -1.7 100
2019-11-22 14:00:00 12.1 22 Sur 46 Sudoeste 2.9 958.1 -0.8 100
2019-11-22 13:00:00 14 25 Sudoeste 46 Oeste 0.1 958.9 0.9 87
2019-11-22 12:00:00 13.3 20 Sudoeste 41 Oeste 0.2 959.3 1.7 98
2019-11-22 11:00:00 12 21 Sudoeste 55 Sudoeste 10 958.9 1.3 100
2019-11-22 10:00:00 13.9 31 Sudoeste 68 Sudoeste 0 958 -1.4 100
2019-11-22 09:00:00 13.7 36 Sudoeste 58 Sudoeste 3.7 957.6 -3.8 100
2019-11-22 08:00:00 12 24 Sur 35 Sur 6.6 957.6 -4.8 100
2019-11-22 07:00:00 11.2 21 Sur 46 Sur 0.4 959.4 -4.4 100
2019-11-22 06:00:00 10.6 27 Sur 55 Sur 0.5 961.4 -4.7 100
2019-11-22 05:00:00 10.2 33 Sur 54 Sur 3.3 962.4 -5.3 100
2019-11-22 04:00:00 9.8 29 Sur 48 Sur 1.5 963.8 -5.9 100
2019-11-22 03:00:00 9.7 25 Sur 42 Sur 1 966.1 -4.6 100
2019-11-22 02:00:00 9.8 23 Sur 37 Sur 0.4 967.7 -4.4 100
2019-11-22 01:00:00 9.7 17 Sur 26 Sur 0.5 969.7 -3.1 100
2019-11-22 00:00:00 9.5 17 Sur 28 Sur 0.2 970.7 -2.4 100
2019-11-21 23:00:00 9.3 13 Sur 24 Sur 0 972.1 -1.7 100
2019-11-21 22:00:00 9.4 15 Sur 24 Sur 0 972.8 -1.6 100
2019-11-21 21:00:00 9.2 12 Sur 17 Sur 0 973.1 -1.6 100
2019-11-21 20:00:00 9.5 12 Sur 18 Sur 0 973.8 -0.8 97
2019-11-21 19:00:00 9.6 12 Sur 17 Sur 0 974.4 -0.4 96
2019-11-21 18:00:00 9.9 10 Sur 22 Sudoeste 0 974.7 -0.1 91
2019-11-21 17:00:00 11.8 16 Sudoeste 28 Sudoeste 0 974.6 -0.9 73
2019-11-21 16:00:00 12.8 16 Sudoeste 28 Sudoeste 0 974.8 -1.1 71
2019-11-21 15:00:00 10.8 3 Sudeste 9 Este 0.4 974.8 -1.4 99
2019-11-21 14:00:00 10.8 12 Oeste 22 Oeste 0.8 975.5 -0.4 84
2019-11-21 13:00:00 10.8 10 Sur 24 Sur 0 975.9 0 99
2019-11-21 12:00:00 10.6 9 Sur 18 Sur 0 976.2 1 97
2019-11-21 11:00:00 8.4 12 Sur 17 Sudoeste 0.2 975.9 0.9 100
2019-11-21 10:00:00 7.6 8 Sur 15 Sur 1.1 975.9 1.1 100
2019-11-21 09:00:00 6.8 12 Sudoeste 17 Sur 0 975.2 0.7 100
2019-11-21 08:00:00 7.1 10 Sudoeste 13 Sudoeste 0 975 0.4 100
2019-11-21 07:00:00 7.1 9 Sudoeste 13 Sur 0 974.8 0 100
2019-11-21 06:00:00 6.8 8 Sudoeste 11 Sur 0 974.5 0 100
2019-11-21 05:00:00 6.9 6 Sudoeste 13 Sur 0 974.6 0.1 100
2019-11-21 04:00:00 7.8 9 Sudoeste 15 Sur 0 974.8 0.2 100
2019-11-21 03:00:00 8.2 6 Sudoeste 18 Oeste 0 974.5 0 100
2019-11-21 02:00:00 8.2 7 Sur 17 Sur 5.6 974.5 -0.2 100
2019-11-21 01:00:00 8 15 Sur 26 Sur 0.7 974.6 0 100
2019-11-21 00:00:00 7.9 11 Sur 24 Sur 0 974.5 -0.1 100
2019-11-20 23:00:00 8 13 Sur 22 Sur 0 974.7 0.3 100
2019-11-20 22:00:00 7.8 13 Sur 24 Sur 0.2 974.6 0.5 100
2019-11-20 21:00:00 8 10 Sur 17 Sur 0 974.6 0.6 100
2019-11-20 20:00:00 7.9 9 Sur 21 Sur 0 974.4 0 100
2019-11-20 19:00:00 8.2 12 Sur 18 Sur 0 974.1 -0.3 100
2019-11-20 18:00:00 8.5 10 Sur 15 Sudeste 0 974 -0.8 100
2019-11-20 17:00:00 8.6 8 Sur 24 Sur 0.2 974.4 -1.1 100
2019-11-20 16:00:00 8.3 12 Sur 22 Sudeste 0 974.4 -1.4 100
2019-11-20 15:00:00 8 13 Sur 33 Sur 2.5 974.8 -1.5 100
2019-11-20 14:00:00 7.9 19 Sur 39 Sur 5.3 975.5 -1.1 100
2019-11-20 13:00:00 9 20 Sur 32 Sur 0.4 975.8 -0.8 100
2019-11-20 12:00:00 8.5 11 Sur 24 Sur 0 976.3 -0.4 100
2019-11-20 11:00:00 7.5 17 Sur 26 Sur 0 976.6 -0.1 100
2019-11-20 10:00:00 7.4 16 Sur 24 Sur 0 976.6 -0.4 100
2019-11-20 09:00:00 7.4 12 Sur 22 Sur 0 976.7 -0.6 100
2019-11-20 08:00:00 7.8 9 Sur 24 Sur 0 976.7 -1 100
2019-11-20 07:00:00 7.9 14 Sur 22 Sur 0 977 -1.3 100
2019-11-20 06:00:00 7.9 12 Sur 24 Sur 0 977.3 -1.5 100
2019-11-20 05:00:00 8.3 9 Sur 17 Sur 0 977.7 -1.9 100
2019-11-20 04:00:00 8.4 11 Sur 18 Sur 0 978.3 -1.9 100
2019-11-20 03:00:00 8.4 9 Sur 17 Sur 0 978.8 -1.7 100
2019-11-20 02:00:00 8.1 5 Sudoeste 9 Sudoeste 0 979.6 -1.5 100
2019-11-20 01:00:00 8.4 5 Sudoeste 13 Sudoeste 0 980.2 -1 100
2019-11-20 00:00:00 8.6 6 Sudoeste 13 Sudoeste 0 980.5 -0.8 100
2019-11-19 23:00:00 8.8 7 Sur 21 Sur 0 981.1 -0.6 100
2019-11-19 22:00:00 8.8 15 Sur 28 Sudeste 0 981.2 -0.6 100
2019-11-19 21:00:00 8.8 13 Sur 26 Sur 0 981.3 -0.3 100
2019-11-19 20:00:00 8.8 13 Sur 22 Sudeste 0.7 981.7 0.1 100
2019-11-19 19:00:00 8.8 14 Sur 28 Sur 1.2 981.8 -0.3 100
2019-11-19 18:00:00 8.6 8 Sur 30 Sur 0.9 981.6 -1.1 100
2019-11-19 17:00:00 8.6 13 Sur 26 Sur 2.4 981.6 -1.8 100
2019-11-19 16:00:00 8.5 14 Sur 28 Sur 1 982.1 -2.3 100
2019-11-19 15:00:00 8.2 18 Sur 28 Sur 0.1 982.7 -2.6 100
2019-11-19 14:00:00 7.9 16 Sur 30 Sur 0.4 983.4 -2.2 100
2019-11-19 13:00:00 7.9 18 Sur 32 Sur 0.5 984.4 -1.5 100
2019-11-19 12:00:00 7.8 18 Sur 28 Sur 0.5 985.3 -0.7 100
2019-11-19 11:00:00 7.2 15 Sur 26 Sur 0 985.6 -0.2 100
2019-11-19 10:00:00 6.8 15 Sur 24 Sur 0 985.9 0.2 100
2019-11-19 09:00:00 6.1 15 Sur 22 Sur 0.5 986 0.1 100
2019-11-19 08:00:00 6.1 17 Sur 22 Sur 0.2 985.8 -0.5 100
2019-11-19 07:00:00 6 14 Sur 22 Sur 0 985.7 -1.2 100
2019-11-19 06:00:00 5.7 14 Sur 22 Sur 0 985.9 -1.4 100
2019-11-19 05:00:00 5.7 15 Sur 21 Sur 0 986.3 -1.3 100
2019-11-19 04:00:00 5.8 15 Sur 21 Sur 0 986.9 -1.1 100
2019-11-19 03:00:00 6 12 Sudoeste 15 Sudoeste 0 987.3 -0.7 100
2019-11-19 02:00:00 6.6 10 Sudoeste 17 Sudoeste 0 987.6 -0.8 100
2019-11-19 01:00:00 7.1 11 Sudoeste 15 Sudoeste 0 988 -0.6 100
2019-11-19 00:00:00 6.7 9 Sudoeste 11 Sudoeste 0 988 -0.9 100
2019-11-18 23:00:00 6.3 4 Oeste 9 Oeste 0 988.4 -0.2 100
2019-11-18 22:00:00 6.9 8 Oeste 30 Oeste 0 988.6 0.1 100
2019-11-18 21:00:00 8 10 Oeste 30 Oeste 0 988.9 0.6 100
2019-11-18 20:00:00 8.4 10 Oeste 17 Oeste 0 988.6 0.6 100
2019-11-18 19:00:00 9.7 10 Oeste 21 Oeste 0 988.5 0.5 95
2019-11-18 18:00:00 10.5 9 Sudoeste 15 Norte 0 988.3 0.3 87
2019-11-18 17:00:00 12.2 6 Norte 17 Norte 0 988 -0.5 71
2019-11-18 16:00:00 12.6 11 Norte 21 Noroeste 0 988 -1.1 67
2019-11-18 15:00:00 12.5 12 Norte 22 Norte 0 988 -1.5 66
2019-11-18 14:00:00 12 10 Norte 22 Norte 0 988.5 -1.1 69
2019-11-18 13:00:00 11.7 9 Nordeste 15 Norte 0 989.1 -0.4 77
2019-11-18 12:00:00 10.7 4 Nordeste 13 Nordeste 0 989.5 0.6 86
2019-11-18 11:00:00 9.2 5 Norte 9 Norte 0 989.6 1.3 91
2019-11-18 10:00:00 7.3 3 Noroeste 9 Sudeste 0 989.5 1.7 100
2019-11-18 09:00:00 5.3 2 Oeste 11 Oeste 0 988.9 1.3 100
2019-11-18 08:00:00 5.2 4 Sudoeste 17 Norte 0 988.3 1.4 100
2019-11-18 07:00:00 5.8 8 Norte 13 Norte 0 987.8 1.3 100
2019-11-18 06:00:00 7 8 Norte 21 Norte 0 987.6 1.5 98
2019-11-18 05:00:00 6.9 14 Norte 18 Norte 0 986.9 0.8 100
2019-11-18 04:00:00 7 11 Norte 18 Norte 0 986.5 0.9 100
2019-11-18 03:00:00 7.4 14 Norte 21 Norte 0 986.1 0.8 100
2019-11-18 02:00:00 7.1 11 Norte 15 Norte 0 986.1 0.6 100
2019-11-18 01:00:00 8.3 12 Noroeste 21 Noroeste 0 985.6 0.4 99
2019-11-18 00:00:00 8 10 Norte 13 Norte 0 985.3 0.6 99
2019-11-17 23:00:00 8.9 9 Norte 26 Norte 0 985.5 1 94
2019-11-17 22:00:00 9.4 15 Noroeste 28 Oeste 0 985.2 0.9 89
2019-11-17 21:00:00 9.4 14 Noroeste 24 Noroeste 0 984.7 0.8 87
2019-11-17 20:00:00 9.7 6 Noroeste 30 Noroeste 0 984.5 1.1 80
2019-11-17 19:00:00 10 21 Noroeste 32 Norte 0 984.3 1 75
2019-11-17 18:00:00 10.6 16 Noroeste 32 Norte 0 983.9 0.5 79
2019-11-17 17:00:00 11.4 20 Noroeste 32 Oeste 0 983.4 -0.4 69
2019-11-17 16:00:00 12.1 21 Noroeste 33 Noroeste 0 983.3 -0.9 73
2019-11-17 15:00:00 11.9 16 Noroeste 37 Noroeste 0 983.4 -1.3 73
2019-11-17 14:00:00 11.7 17 Noroeste 26 Noroeste 0 983.8 -0.6 85
2019-11-17 13:00:00 11.3 9 Noroeste 35 Noroeste 0 984.2 0.2 89
2019-11-17 12:00:00 11.4 11 Noroeste 21 Noroeste 0 984.7 1 92
2019-11-17 11:00:00 10.8 11 Noroeste 28 Noroeste 0 984.4 1 97
2019-11-17 10:00:00 10.4 18 Noroeste 28 Noroeste 0 984 0.7 100
2019-11-17 09:00:00 10.3 8 Noroeste 22 Oeste 2.7 983.7 0.5 100
2019-11-17 08:00:00 8.9 6 Sudoeste 9 Sudoeste 2.3 983.4 -0.1 100
2019-11-17 07:00:00 8.5 8 Sur 18 Sur 2.1 983.3 -0.6 100
2019-11-17 06:00:00 8.3 11 Sur 18 Sur 0.4 983.2 -1 100
2019-11-17 05:00:00 8.1 14 Sur 22 Sur 0.1 983.5 -1.2 100
2019-11-17 04:00:00 8 11 Sur 22 Sur 0 983.9 -1.3 100
2019-11-17 03:00:00 7.9 10 Sur 21 Sur 0 984.2 -1.3 100
2019-11-17 02:00:00 7.8 11 Sur 26 Sudeste 0 984.7 -1.1 100
2019-11-17 01:00:00 7.8 11 Sur 21 Sur 0 985.2 -0.9 100
2019-11-17 00:00:00 7.7 10 Sur 28 Sur 0.4 985.5 -0.8 100
2019-11-16 23:00:00 8.3 14 Sur 26 Sur 0 985.8 -0.8 97
2019-11-16 22:00:00 8.6 15 Sur 28 Sudeste 0 986.1 -0.5 94
2019-11-16 21:00:00 8.5 10 Sur 21 Sur 0 986.3 -0.6 95
2019-11-16 20:00:00 8.6 11 Sur 17 Sur 0 986.6 -0.4 94
2019-11-16 19:00:00 8.8 9 Sur 17 Sur 0 986.6 -0.4 93
2019-11-16 18:00:00 9.2 10 Sur 17 Sur 0 986.9 -0.2 90
2019-11-16 17:00:00 10.1 10 Sur 18 Sudoeste 0 987 -0.4 73
2019-11-16 16:00:00 10.2 4 Sudeste 13 Sudoeste 0 987 -0.8 85
2019-11-16 15:00:00 10 6 Sudeste 13 Sudeste 0 987.1 -1.2 82
2019-11-16 14:00:00 9.7 6 Sudeste 15 Sur 0 987.4 -0.5 79
2019-11-16 13:00:00 8.9 10 Sur 17 Sur 0 987.8 0.1 82
2019-11-16 12:00:00 6.7 13 Sur 17 Sur 0 988.3 1 93
2019-11-16 11:00:00 7.1 7 Sur 13 Sur 0 987.9 1.1 92
2019-11-16 10:00:00 4.8 9 Sudoeste 17 Sudoeste 0 987.7 1.5 100
2019-11-16 09:00:00 3.9 9 Sudoeste 15 Sur 0 987.3 1.4 100
2019-11-16 08:00:00 4.1 8 Sudoeste 11 Sudoeste 0 986.8 1.3 100
2019-11-16 07:00:00 4.2 8 Sudoeste 13 Sudoeste 0 986.2 0.8 100
2019-11-16 06:00:00 3.5 6 Sudoeste 9 Sudoeste 0 985.9 0.9 100
2019-11-16 05:00:00 3 4 Sudoeste 9 Norte 0 985.5 0.6 100
2019-11-16 04:00:00 4.1 7 Norte 11 Norte 0 985.4 0.7 99
2019-11-16 03:00:00 4.9 9 Norte 15 Norte 0 985 0.4 97
2019-11-16 02:00:00 4 9 Noroeste 13 Norte 0 984.9 0.5 100
2019-11-16 01:00:00 4.1 10 Norte 17 Norte 0 984.7 1.1 99
2019-11-16 00:00:00 4.9 12 Norte 22 Norte 0 984.6 1.8 95
2019-11-15 23:00:00 4.7 6 Nordeste 18 Norte 0 984.4 1.8 98
2019-11-15 22:00:00 5.3 14 Norte 26 Nordeste 0 983.6 1.7 90
2019-11-15 21:00:00 4.9 16 Nordeste 39 Nordeste 0 982.8 1.2 100
2019-11-15 20:00:00 6 12 Norte 21 Noroeste 0 982.6 1.1 90
2019-11-15 19:00:00 5.2 4 Nordeste 18 Norte 0 981.9 0.9 94
2019-11-15 18:00:00 5.6 10 Norte 35 Norte 0 981.6 1.3 96
2019-11-15 17:00:00 6.1 19 Norte 39 Norte 0 981.5 0.8 97
2019-11-15 16:00:00 5.6 27 Norte 42 Norte 0.8 981 -0.4 100
2019-11-15 15:00:00 9.4 24 Norte 35 Norte 0 980.3 -1.7 66
2019-11-15 14:00:00 9.2 14 Noroeste 30 Norte 0 980.7 -1 65
2019-11-15 13:00:00 9.4 22 Norte 39 Noroeste 0 981.4 -0.5 67
2019-11-15 12:00:00 8.9 11 Nordeste 21 Nordeste 0 982 0.5 71
2019-11-15 11:00:00 7.8 8 Nordeste 15 Nordeste 0 981.7 0.9 79
2019-11-15 10:00:00 6.4 10 Norte 24 Norte 0 981.9 1.6 84
2019-11-15 09:00:00 4.9 14 Norte 24 Noroeste 0 981.5 1.5 86
2019-11-15 08:00:00 4.1 8 Norte 26 Norte 0 980.8 1 95
2019-11-15 07:00:00 5.2 7 Noroeste 30 Noroeste 0.1 980.3 0.4 85
2019-11-15 06:00:00 4.9 12 Noroeste 24 Noroeste 0 980 0.5 83
2019-11-15 05:00:00 4 11 Noroeste 15 Noroeste 0 979.8 0.1 92
2019-11-15 04:00:00 4.8 9 Noroeste 24 Noroeste 0 979.9 -0.2 84
2019-11-15 03:00:00 6 14 Noroeste 33 Noroeste 0 979.5 -0.3 72
2019-11-15 02:00:00 6 10 Noroeste 22 Norte 0 979.7 -0.1 74
2019-11-15 01:00:00 7.1 15 Norte 35 Noroeste 0 980.1 1 67
2019-11-15 00:00:00 7.4 12 Noroeste 28 Noroeste 0 979.8 1 72
2019-11-14 23:00:00 7.8 16 Noroeste 33 Norte 0 979.8 1.1 68
2019-11-14 22:00:00 7.9 18 Noroeste 33 Noroeste 0 979.1 1.1 70
2019-11-14 21:00:00 8.6 21 Noroeste 42 Noroeste 0 978.8 1.5 67
2019-11-14 20:00:00 8.6 25 Noroeste 50 Norte 0 978.7 2.4 68
2019-11-14 19:00:00 9.2 30 Noroeste 50 Noroeste 0.1 978 2.1 70
2019-11-14 18:00:00 9.7 25 Noroeste 52 Norte 0 977.3 2.7 71
2019-11-14 17:00:00 10 29 Noroeste 59 Noroeste 0 976.3 2 75
2019-11-14 16:00:00 8.6 31 Noroeste 59 Noroeste 1.3 975.9 1.9 96
2019-11-14 15:00:00 10.7 37 Noroeste 65 Noroeste 0.1 974.6 1.1 74
2019-11-14 14:00:00 10 26 Noroeste 65 Noroeste 0.2 974.3 -0.8 79
2019-11-14 13:00:00 9.6 36 Noroeste 78 Oeste 2.3 974 -1.9 89
2019-11-14 12:00:00 10.1 19 Oeste 39 Noroeste 0.4 973.5 -3.2 89
2019-11-14 11:00:00 8.6 19 Sudoeste 58 Oeste 2.3 975.1 -1.8 92
2019-11-14 10:00:00 6.1 6 Noroeste 18 Noroeste 2.3 975.9 -2.1 96
2019-11-14 09:00:00 5.6 3 Sur 18 Sudoeste 1.5 976.7 -0.6 100
2019-11-14 08:00:00 5.4 5 Sudoeste 33 Norte 0.4 976.9 -1.3 100
2019-11-14 07:00:00 6 21 Norte 48 Oeste 4 978 -1.3 100
2019-11-14 06:00:00 8.4 10 Oeste 26 Oeste 0 977.3 -2.7 77
2019-11-14 05:00:00 7.6 10 Oeste 17 Oeste 0 978.2 -2 95
2019-11-14 04:00:00 7.2 5 Sudoeste 28 Norte 0.4 979.3 -1.6 99
2019-11-14 03:00:00 7.2 23 Noroeste 55 Noroeste 0.8 980 -1.3 96
2019-11-14 02:00:00 9.2 17 Noroeste 41 Noroeste 0.6 980.2 -1.8 91
2019-11-14 01:00:00 9.4 8 Noroeste 55 Oeste 0.6 980.9 -1.6 98
2019-11-14 00:00:00 10.6 23 Noroeste 55 Oeste 0.6 981.3 -2.5 92
2019-11-13 23:00:00 11.1 21 Oeste 45 Oeste 2.6 982 -2.5 100
2019-11-13 22:00:00 11.6 18 Sudoeste 42 Sudoeste 0.5 982.5 -2.7 92
2019-11-13 21:00:00 10.7 8 Sur 22 Oeste 0 983.8 -1.7 100
2019-11-13 20:00:00 10.8 13 Oeste 24 Oeste 1.2 984.5 -1 100
2019-11-13 19:00:00 11.3 10 Oeste 18 Oeste 0 985.2 -0.3 92
2019-11-13 18:00:00 11.4 9 Noroeste 26 Oeste 0 985.5 0.2 94
2019-11-13 17:00:00 12.5 11 Oeste 22 Oeste 0 985.5 -0.3 81
2019-11-13 16:00:00 13.2 12 Oeste 22 Noroeste 0 985.5 -1.2 80
2019-11-13 15:00:00 14.3 14 Noroeste 26 Noroeste 0 985.3 -0.8 70
2019-11-13 14:00:00 13.3 4 Norte 24 Norte 0 985.8 0.8 78
2019-11-13 13:00:00 13.4 15 Norte 33 Noroeste 0 986.7 1.6 80
2019-11-13 12:00:00 13.5 19 Noroeste 32 Norte 0 986.1 2 88
2019-11-13 11:00:00 13.5 8 Nordeste 18 Norte 0 985 2.1 99
2019-11-13 10:00:00 12.2 7 Nordeste 17 Norte 0 985.1 3.8 100
2019-11-13 09:00:00 10.7 5 Nordeste 21 Norte 0 984.1 3.7 100
2019-11-13 08:00:00 11.3 11 Norte 24 Norte 0 982.9 3.5 100
2019-11-13 07:00:00 11.6 12 Norte 26 Norte 0 981.3 2.4 100
2019-11-13 06:00:00 12.9 21 Norte 30 Norte 0 980.4 1.9 98
2019-11-13 05:00:00 13.6 14 Norte 28 Oeste 0.2 979.4 0.7 100
2019-11-13 04:00:00 14.2 17 Oeste 33 Oeste 1.1 978.9 0.7 100
2019-11-13 03:00:00 14.3 15 Oeste 41 Oeste 0.9 978.5 0.4 100
2019-11-13 02:00:00 14.7 24 Oeste 54 Oeste 0.2 978.7 0.1 100
2019-11-13 01:00:00 15 17 Oeste 48 Sudoeste 3.4 978.2 -0.8 100
2019-11-13 00:00:00 14.9 24 Oeste 48 Sudoeste 4.2 978.1 -1.3 100
2019-11-12 23:00:00 14.6 19 Oeste 41 Oeste 7.5 978.6 -1.4 100
2019-11-12 22:00:00 14.5 17 Oeste 42 Sudoeste 12.1 979 -1.6 100
2019-11-12 21:00:00 14.3 16 Sudoeste 41 Oeste 11.4 979.4 -2 100
2019-11-12 20:00:00 14.2 15 Sudoeste 45 Sudoeste 9.4 980 -2 100
2019-11-12 19:00:00 13.9 19 Sudoeste 41 Sudoeste 8.2 980.6 -2.3 100
2019-11-12 18:00:00 13.4 17 Sudoeste 45 Sudoeste 11.9 981.4 -2.7 100
2019-11-12 17:00:00 13 22 Sudoeste 42 Sudoeste 7.5 982 -3.6 100
2019-11-12 16:00:00 11 10 Sur 26 Sur 3.5 982.9 -4 100
2019-11-12 15:00:00 10.3 12 Sur 24 Sur 2.1 984.1 -3.8 100
2019-11-12 14:00:00 9.4 12 Sur 24 Sur 2 985.6 -3 100
2019-11-12 13:00:00 8.7 15 Sur 22 Sur 1.2 986.9 -2.1 100
2019-11-12 12:00:00 8.1 13 Sur 21 Sur 0.7 987.9 -1.2 100
2019-11-12 11:00:00 7.7 10 Sur 17 Sur 0.5 988.6 -0.5 100
2019-11-12 10:00:00 7.7 13 Sudoeste 21 Sur 0.2 989 -0.2 100
2019-11-12 09:00:00 7.6 13 Sur 17 Sur 0 989.1 -0.5 100
2019-11-12 08:00:00 7.3 10 Sudoeste 21 Sur 0 989.1 -0.8 100
2019-11-12 07:00:00 7.8 11 Sudoeste 17 Sudoeste 0 989.2 -1 100
2019-11-12 06:00:00 7.6 10 Sudoeste 15 Sur 0 989.6 -0.9 100
2019-11-12 05:00:00 8 8 Sudoeste 11 Sudoeste 0 989.9 -1.6 99
2019-11-12 04:00:00 7.8 4 Sudoeste 9 Sudoeste 0 990.2 -1.3 99
2019-11-12 03:00:00 8.1 8 Sudoeste 9 Oeste 0 990.5 -1.5 100
2019-11-12 02:00:00 7.6 4 Norte 8 Norte 0 991.5 -0.5 99
2019-11-12 01:00:00 7.9 0 Calma 13 Noroeste 0 991.5 -0.2 98
2019-11-12 00:00:00 8.4 4 Norte 13 Noroeste 0 992 -0.2 97
2019-11-11 23:00:00 8.8 2 Este 8 Norte 0 992 0.3 92
2019-11-11 22:00:00 8.5 4 Sudoeste 8 Sudoeste 0 991.7 0.2 98
2019-11-11 21:00:00 9 4 Oeste 9 Oeste 0 992.2 1.1 95
2019-11-11 20:00:00 9.7 10 Norte 17 Norte 0 991.7 1.1 91
2019-11-11 19:00:00 10.1 6 Norte 13 Norte 0 991.5 1.1 89
2019-11-11 18:00:00 11.3 12 Norte 22 Norte 0 991.1 0.9 80
2019-11-11 17:00:00 12.5 13 Norte 33 Norte 0 990.6 0.3 70
2019-11-11 16:00:00 13.1 19 Norte 35 Norte 0 990.4 -0.1 66
2019-11-11 15:00:00 13.4 21 Norte 39 Norte 0 990.2 0 70
2019-11-11 14:00:00 12.9 27 Norte 41 Norte 0 990.3 0.3 82
2019-11-11 13:00:00 12.7 24 Norte 41 Norte 0 990.5 0.8 87
2019-11-11 12:00:00 12.3 19 Norte 37 Norte 0 990.2 1.2 95
2019-11-11 11:00:00 12 26 Norte 39 Norte 0 990 1.4 100
2019-11-11 10:00:00 12.2 26 Norte 37 Noroeste 0 989.7 1.6 100
2019-11-11 09:00:00 12.8 18 Norte 30 Norte 0 989 0.7 100
2019-11-11 08:00:00 9.8 4 Norte 9 Sur 0 988.6 -0.1 100
2019-11-11 07:00:00 9.3 9 Sur 17 Sudoeste 0 988.1 -1 100
2019-11-11 06:00:00 9.2 10 Sur 17 Sur 0.2 988.3 -0.9 100
2019-11-11 05:00:00 9.1 11 Sur 13 Sudoeste 0.1 988.7 -1.1 100
2019-11-11 04:00:00 9.1 10 Sudoeste 13 Sur 0.2 989.1 -0.5 100
2019-11-11 03:00:00 9.1 9 Sur 11 Sur 0 989.2 -1.1 100
2019-11-11 02:00:00 8.9 8 Sudoeste 17 Sur 0 989.8 -0.7 100
2019-11-11 01:00:00 8.8 14 Sur 21 Sur 0 989.6 -0.6 100
2019-11-11 00:00:00 8.8 11 Sur 18 Sur 0.1 990.3 -0.1 100